Time;durP1;ratioP1;P1;durP2;ratioP2;P2;SDS_P1;SDS_P2;PMS_P1;PMS_P2;Temp;Humidity;BMP_temperature;BMP_pressure;BME280_temperature;BME280_humidity;BME280_pressure;Samples;Min_cycle;Max_cycle;Signal;HPM_P1;HPM_P2
2021/08/11 00:00:14;;;;;;;6.78;3.88;;;16.90;82.80;;;;;;5155080;27;20030;-74
2021/08/11 00:02:40;;;;;;;11.05;3.97;;;16.90;82.70;;;;;;5155200;27;20030;-74
2021/08/11 00:05:06;;;;;;;5.75;4.40;;;16.90;82.70;;;;;;5154846;27;20015;-74
2021/08/11 00:07:32;;;;;;;6.50;4.60;;;16.90;82.80;;;;;;5155124;27;20018;-74
2021/08/11 00:09:57;;;;;;;12.30;4.43;;;16.80;82.90;;;;;;5154990;27;20523;-75
2021/08/11 00:12:23;;;;;;;6.55;4.10;;;16.80;82.90;;;;;;5136376;27;20447;-74
2021/08/11 00:14:49;;;;;;;9.35;4.45;;;16.80;83.00;;;;;;5154960;27;20097;-74
2021/08/11 00:17:14;;;;;;;7.15;4.18;;;16.80;83.00;;;;;;5154944;27;20019;-74
2021/08/11 00:19:40;;;;;;;6.38;4.07;;;16.70;83.30;;;;;;5154782;27;20026;-75
2021/08/11 00:22:05;;;;;;;8.55;4.65;;;16.80;83.30;;;;;;5154813;27;20053;-75
2021/08/11 00:24:31;;;;;;;6.85;4.30;;;16.70;83.30;;;;;;5154794;27;20019;-74
2021/08/11 00:26:56;;;;;;;10.50;4.57;;;16.80;83.20;;;;;;5154892;27;20023;-74
2021/08/11 00:29:22;;;;;;;9.15;4.80;;;16.80;83.10;;;;;;5154918;27;20034;-74
2021/08/11 00:31:48;;;;;;;8.68;5.28;;;16.70;83.20;;;;;;5154718;27;20356;-75
2021/08/11 00:34:13;;;;;;;5.60;4.60;;;16.70;83.30;;;;;;5154736;27;20058;-74
2021/08/11 00:36:39;;;;;;;7.25;4.60;;;16.60;83.40;;;;;;5154381;27;20101;-74
2021/08/11 00:39:04;;;;;;;10.13;4.53;;;16.60;83.50;;;;;;5154469;27;20091;-75
2021/08/11 00:41:30;;;;;;;7.10;4.60;;;16.60;83.50;;;;;;5157708;27;20130;-75
2021/08/11 00:43:56;;;;;;;8.63;4.57;;;16.60;83.20;;;;;;5158856;27;20027;-75
2021/08/11 00:46:22;;;;;;;7.93;4.38;;;16.60;83.20;;;;;;5140362;27;20530;-75
2021/08/11 00:48:47;;;;;;;9.00;4.07;;;16.60;83.20;;;;;;5158967;27;20025;-74
2021/08/11 00:51:13;;;;;;;8.30;4.68;;;16.60;83.20;;;;;;5158627;27;20506;-74
2021/08/11 00:53:40;;;;;;;11.63;4.85;;;16.50;83.30;;;;;;5158798;27;20392;-74
2021/08/11 00:56:06;;;;;;;8.35;4.45;;;16.50;83.60;;;;;;5158631;27;20019;-74
2021/08/11 00:58:33;;;;;;;7.47;4.78;;;16.40;83.80;;;;;;5140034;27;20458;-74
2021/08/11 01:01:00;;;;;;;6.47;4.60;;;16.30;84.20;;;;;;5158592;27;20062;-74
2021/08/11 01:03:27;;;;;;;8.52;4.30;;;16.40;84.40;;;;;;5158576;27;20497;-74
2021/08/11 01:05:55;;;;;;;9.82;4.82;;;16.40;84.50;;;;;;5158509;27;20053;-74
2021/08/11 01:08:22;;;;;;;6.20;4.13;;;16.30;84.60;;;;;;5158579;27;20388;-74
2021/08/11 01:10:49;;;;;;;8.32;4.05;;;16.30;84.50;;;;;;5158425;27;20046;-73
2021/08/11 01:13:16;;;;;;;7.25;4.35;;;16.30;84.50;;;;;;5158373;27;20019;-74
2021/08/11 01:15:47;;;;;;;6.68;4.53;;;16.30;84.60;;;;;;5158257;27;20410;-74
2021/08/11 01:18:17;;;;;;;7.45;4.85;;;16.30;84.50;;;;;;5158444;27;20019;-74
2021/08/11 01:20:56;;;;;;;8.00;4.93;;;16.30;84.50;;;;;;5158255;27;20538;-74
2021/08/11 01:23:28;;;;;;;7.88;4.57;;;16.30;84.40;;;;;;5158220;27;20091;-74
2021/08/11 01:26:06;;;;;;;7.47;4.47;;;16.30;84.50;;;;;;5158070;27;20092;-74
2021/08/11 01:28:49;;;;;;;11.25;4.90;;;16.30;84.30;;;;;;5158085;27;20067;-74
2021/08/11 01:31:17;;;;;;;9.40;5.00;;;16.40;85.10;;;;;;5157984;27;20535;-74
2021/08/11 01:34:09;;;;;;;8.88;4.40;;;16.30;84.30;;;;;;5157947;27;20080;-74
2021/08/11 01:36:53;;;;;;;7.38;4.45;;;16.30;84.40;;;;;;5157945;27;20019;-74
2021/08/11 01:39:35;;;;;;;7.95;4.47;;;16.30;84.20;;;;;;5157812;27;20041;-74
2021/08/11 01:42:07;;;;;;;8.43;4.55;;;16.30;84.10;;;;;;5157704;27;20105;-74
2021/08/11 01:44:49;;;;;;;4.40;3.58;;;16.30;84.10;;;;;;5157791;27;20102;-74
2021/08/11 01:47:18;;;;;;;9.57;4.35;;;16.20;84.60;;;;;;5157693;27;20087;-74
2021/08/11 01:49:46;;;;;;;8.68;4.63;;;16.10;85.00;;;;;;5157662;27;20033;-75
2021/08/11 01:52:14;;;;;;;6.72;4.30;;;16.10;85.10;;;;;;5157094;27;20087;-74
2021/08/11 01:54:42;;;;;;;8.32;4.47;;;16.00;85.00;;;;;;5157505;27;20054;-74
2021/08/11 01:57:10;;;;;;;5.90;4.20;;;16.10;85.10;;;;;;5157497;27;20029;-74
2021/08/11 01:59:37;;;;;;;7.82;4.20;;;16.10;85.00;;;;;;5157432;27;20083;-74
2021/08/11 02:02:02;;;;;;;8.75;4.70;;;16.10;85.10;;;;;;5157363;27;20042;-74
2021/08/11 02:04:29;;;;;;;13.35;4.35;;;16.10;85.20;;;;;;5138803;27;20054;-74
2021/08/11 02:06:56;;;;;;;8.63;4.50;;;16.10;85.10;;;;;;5157392;27;20534;-75
2021/08/11 02:09:22;;;;;;;7.13;4.35;;;16.10;85.30;;;;;;5157269;27;20019;-74
2021/08/11 02:11:48;;;;;;;6.50;4.57;;;16.10;85.00;;;;;;5157393;27;20477;-74
2021/08/11 02:14:13;;;;;;;7.45;4.35;;;16.20;84.90;;;;;;5157121;27;20436;-74
2021/08/11 02:16:40;;;;;;;6.50;4.10;;;16.20;84.70;;;;;;5138543;27;20113;-74
2021/08/11 02:19:08;;;;;;;6.55;4.50;;;16.20;84.50;;;;;;5157020;27;20065;-74
2021/08/11 02:21:33;;;;;;;7.18;4.63;;;16.10;84.80;;;;;;5138449;27;20176;-74
2021/08/11 02:24:01;;;;;;;8.77;4.13;;;16.10;85.00;;;;;;5157051;27;20100;-75
2021/08/11 02:26:57;;;;;;;7.60;4.07;;;16.10;85.10;;;;;;5157061;27;20018;-74
2021/08/11 02:29:40;;;;;;;6.77;4.47;;;16.10;85.00;;;;;;5138446;27;20019;-73
2021/08/11 02:32:32;;;;;;;7.13;4.70;;;16.10;85.00;;;;;;5156861;27;20019;-75
2021/08/11 02:35:04;;;;;;;7.55;3.70;;;16.00;85.00;;;;;;5156766;27;20098;-74
2021/08/11 02:38:02;;;;;;;6.18;4.70;;;16.00;85.00;;;;;;5156818;27;20544;-74
2021/08/11 02:40:36;;;;;;;8.77;4.32;;;15.90;85.10;;;;;;5121273;27;20027;-74
2021/08/11 02:43:22;;;;;;;7.60;4.30;;;15.90;85.10;;;;;;5156583;27;20814;-74
2021/08/11 02:45:53;;;;;;;8.38;3.97;;;15.90;85.00;;;;;;5156702;27;20098;-74
2021/08/11 02:48:20;;;;;;;8.77;4.45;;;15.90;85.00;;;;;;5156624;27;20062;-74
2021/08/11 02:50:48;;;;;;;7.82;4.20;;;15.90;85.20;;;;;;5156349;27;20063;-74
2021/08/11 02:53:18;;;;;;;7.80;4.78;;;15.90;85.40;;;;;;5156336;27;20051;-74
2021/08/11 02:55:44;;;;;;;6.68;4.22;;;15.90;85.50;;;;;;5156282;27;20531;-74
2021/08/11 02:58:11;;;;;;;7.32;4.55;;;15.90;85.40;;;;;;5137403;27;20027;-74
2021/08/11 03:00:37;;;;;;;7.78;4.28;;;15.90;85.30;;;;;;5156130;27;20027;-74
2021/08/11 03:03:04;;;;;;;5.85;3.55;;;15.90;85.30;;;;;;5155403;27;20019;-73
2021/08/11 03:05:30;;;;;;;7.72;4.57;;;16.00;84.90;;;;;;5156256;27;20502;-73
2021/08/11 03:07:57;;;;;;;9.43;4.72;;;16.00;84.90;;;;;;5156120;27;20018;-74
2021/08/11 03:10:22;;;;;;;10.38;4.35;;;16.00;85.10;;;;;;5137466;27;20423;-74
2021/08/11 03:12:48;;;;;;;8.30;4.22;;;15.90;85.40;;;;;;5156054;27;20019;-73
2021/08/11 03:15:15;;;;;;;8.68;3.92;;;16.00;85.30;;;;;;5155940;27;20022;-73
2021/08/11 03:17:40;;;;;;;6.30;4.70;;;15.90;85.30;;;;;;5155956;27;20022;-73
2021/08/11 03:20:07;;;;;;;9.63;4.10;;;15.90;85.50;;;;;;5155831;27;20035;-73
2021/08/11 03:22:33;;;;;;;7.15;4.63;;;15.90;85.40;;;;;;5155782;27;20074;-73
2021/08/11 03:24:59;;;;;;;5.40;3.78;;;15.90;85.30;;;;;;5155778;27;20030;-73
2021/08/11 03:27:24;;;;;;;8.40;4.68;;;15.90;85.20;;;;;;5155825;27;20015;-73
2021/08/11 03:29:50;;;;;;;7.38;4.30;;;15.90;85.40;;;;;;5155844;27;20513;-73
2021/08/11 03:32:16;;;;;;;8.90;4.13;;;15.90;85.50;;;;;;5155761;27;20457;-73
2021/08/11 03:34:41;;;;;;;7.80;4.13;;;15.90;85.40;;;;;;5155561;27;20027;-73
2021/08/11 03:37:07;;;;;;;5.75;4.20;;;15.80;86.30;;;;;;5155604;27;20491;-72
2021/08/11 03:39:32;;;;;;;9.70;4.47;;;15.80;85.50;;;;;;5156029;27;20030;-74
2021/08/11 03:41:58;;;;;;;6.40;4.47;;;15.80;85.60;;;;;;5163306;27;20049;-74
2021/08/11 03:44:24;;;;;;;8.50;4.38;;;15.80;85.60;;;;;;5137346;27;20045;-73
2021/08/11 03:46:49;;;;;;;6.70;4.55;;;15.70;85.80;;;;;;5155332;27;20029;-74
2021/08/11 03:49:15;;;;;;;6.25;4.65;;;15.80;86.00;;;;;;5155165;27;20019;-73
2021/08/11 03:51:40;;;;;;;7.65;4.60;;;15.70;86.10;;;;;;5133136;27;20066;-74
2021/08/11 03:54:06;;;;;;;10.30;5.65;;;15.70;86.10;;;;;;5134529;27;20375;-74
2021/08/11 03:56:31;;;;;;;7.20;4.88;;;15.70;86.10;;;;;;5134381;27;20434;-74
2021/08/11 03:58:57;;;;;;;8.35;4.20;;;15.60;86.20;;;;;;5132998;27;20495;-75
2021/08/11 04:01:23;;;;;;;8.95;4.10;;;15.60;86.30;;;;;;5134372;27;20112;-74
2021/08/11 04:03:48;;;;;;;7.15;4.20;;;15.70;86.40;;;;;;5134298;27;20019;-74
2021/08/11 04:06:14;;;;;;;8.73;4.68;;;15.70;86.10;;;;;;5134255;27;20378;-74
2021/08/11 04:08:39;;;;;;;6.03;4.28;;;15.70;86.00;;;;;;5134320;27;20432;-75
2021/08/11 04:11:05;;;;;;;7.95;4.25;;;15.70;86.00;;;;;;5134216;27;20072;-74
2021/08/11 04:13:30;;;;;;;9.32;4.57;;;15.60;85.90;;;;;;5134214;27;20023;-75
2021/08/11 04:15:56;;;;;;;6.25;3.95;;;15.60;85.90;;;;;;5134237;27;20053;-74
2021/08/11 04:18:21;;;;;;;10.85;4.45;;;15.60;85.90;;;;;;5133938;27;20023;-74
2021/08/11 04:20:47;;;;;;;7.70;4.40;;;15.60;85.80;;;;;;5132856;27;20031;-74
2021/08/11 04:23:13;;;;;;;9.30;4.57;;;15.60;85.70;;;;;;5134038;27;20031;-74
2021/08/11 04:25:40;;;;;;;9.63;4.78;;;15.60;85.80;;;;;;5134082;27;20019;-75
2021/08/11 04:28:09;;;;;;;8.10;4.43;;;15.60;85.80;;;;;;5134089;27;20102;-76
2021/08/11 04:30:36;;;;;;;6.30;4.25;;;15.70;85.60;;;;;;5134008;27;20050;-75
2021/08/11 04:33:01;;;;;;;9.10;5.05;;;15.60;85.50;;;;;;5133921;27;20530;-75
2021/08/11 04:35:27;;;;;;;10.10;4.38;;;15.60;85.70;;;;;;5134003;27;20118;-75
2021/08/11 04:37:53;;;;;;;7.45;4.93;;;15.60;86.20;;;;;;5133065;27;20038;-74
2021/08/11 04:40:18;;;;;;;7.43;4.70;;;15.50;86.50;;;;;;5133512;27;20076;-75
2021/08/11 04:42:44;;;;;;;9.63;5.30;;;15.60;86.40;;;;;;5133615;27;20019;-75
2021/08/11 04:45:10;;;;;;;7.88;4.40;;;15.60;86.30;;;;;;5133974;27;20561;-75
2021/08/11 04:47:36;;;;;;;7.10;4.80;;;15.70;86.40;;;;;;5134114;27;20041;-73
2021/08/11 04:50:02;;;;;;;8.40;4.68;;;15.70;86.10;;;;;;5134224;27;20034;-73
2021/08/11 04:52:27;;;;;;;9.10;4.72;;;15.70;85.80;;;;;;5151889;27;20126;-73
2021/08/11 04:54:53;;;;;;;8.38;4.10;;;15.80;85.80;;;;;;5156250;27;20482;-73
2021/08/11 04:57:19;;;;;;;11.07;4.97;;;15.90;85.60;;;;;;5154465;27;20023;-74
2021/08/11 04:59:44;;;;;;;8.50;5.22;;;16.00;84.60;;;;;;5153619;27;20038;-73
2021/08/11 05:02:10;;;;;;;7.68;4.40;;;15.90;84.60;;;;;;5154487;27;20023;-74
2021/08/11 05:04:35;;;;;;;8.98;4.88;;;16.00;84.70;;;;;;5154435;27;20046;-74
2021/08/11 05:07:05;;;;;;;9.60;4.63;;;16.10;85.40;;;;;;5135630;27;20030;-73
2021/08/11 05:09:34;;;;;;;8.25;4.75;;;16.30;84.60;;;;;;5154461;27;20019;-74
2021/08/11 05:12:00;;;;;;;7.75;4.60;;;16.50;83.70;;;;;;5154275;27;20026;-73
2021/08/11 05:14:26;;;;;;;8.10;4.38;;;16.70;82.90;;;;;;5154377;27;20018;-74
2021/08/11 05:16:51;;;;;;;9.00;4.70;;;16.90;82.00;;;;;;5154241;27;20023;-74
2021/08/11 05:19:17;;;;;;;8.13;4.18;;;17.00;81.50;;;;;;5154046;27;20034;-76
2021/08/11 05:21:42;;;;;;;8.40;4.60;;;17.20;81.10;;;;;;5154244;27;20466;-74
2021/08/11 05:24:08;;;;;;;8.57;4.32;;;17.30;80.10;;;;;;5135508;27;20052;-76
2021/08/11 05:26:34;;;;;;;4.90;3.67;;;17.40;79.10;;;;;;5155294;27;20101;-77
2021/08/11 05:29:00;;;;;;;6.80;4.18;;;17.60;78.80;;;;;;5157259;27;20104;-76
2021/08/11 05:31:25;;;;;;;9.02;4.03;;;17.60;78.50;;;;;;5165236;27;20025;-76
2021/08/11 05:33:51;;;;;;;5.80;3.97;;;17.50;78.70;;;;;;5160686;27;20023;-76
2021/08/11 05:36:16;;;;;;;7.70;4.32;;;17.50;78.90;;;;;;5156403;27;20485;-76
2021/08/11 05:38:42;;;;;;;10.40;4.60;;;17.40;79.10;;;;;;5157209;27;20069;-74
2021/08/11 05:41:07;;;;;;;6.72;3.80;;;17.40;79.20;;;;;;5157721;27;20109;-75
2021/08/11 05:43:33;;;;;;;9.18;3.97;;;17.40;80.10;;;;;;5157552;27;20027;-75
2021/08/11 05:45:59;;;;;;;9.48;4.38;;;17.50;79.40;;;;;;5157581;27;20186;-75
2021/08/11 05:48:25;;;;;;;5.90;3.88;;;17.50;79.30;;;;;;5138939;27;20022;-75
2021/08/11 05:50:50;;;;;;;6.10;4.25;;;17.50;79.30;;;;;;5157328;27;20027;-74
2021/08/11 05:53:16;;;;;;;11.00;4.85;;;17.60;79.20;;;;;;5157841;27;20501;-75
2021/08/11 05:55:42;;;;;;;9.07;4.28;;;17.60;79.40;;;;;;5157478;27;20494;-75
2021/08/11 05:58:11;;;;;;;4.82;3.92;;;17.60;79.10;;;;;;5157532;27;20027;-74
2021/08/11 06:00:37;;;;;;;12.13;4.35;;;17.70;79.30;;;;;;5157535;27;20046;-75
2021/08/11 06:03:03;;;;;;;7.45;3.92;;;17.80;78.80;;;;;;5157219;27;20022;-75
2021/08/11 06:05:29;;;;;;;7.78;4.00;;;17.90;78.80;;;;;;5157275;27;20022;-75
2021/08/11 06:07:54;;;;;;;8.43;4.07;;;17.90;78.50;;;;;;5157189;27;20058;-75
2021/08/11 06:10:20;;;;;;;11.13;4.13;;;18.00;78.00;;;;;;5157153;27;20031;-75
2021/08/11 06:12:47;;;;;;;6.95;3.92;;;18.10;77.70;;;;;;5157378;27;20019;-74
2021/08/11 06:15:13;;;;;;;9.57;4.25;;;18.20;77.60;;;;;;5157157;27;20050;-75
2021/08/11 06:17:49;;;;;;;4.57;3.80;;;18.30;77.40;;;;;;5157140;27;20051;-74
2021/08/11 06:20:18;;;;;;;9.38;4.00;;;18.50;77.00;;;;;;5138432;27;20038;-75
2021/08/11 06:22:44;;;;;;;11.88;4.00;;;18.70;76.30;;;;;;5156996;27;20501;-75
2021/08/11 06:25:11;;;;;;;8.00;3.90;;;18.80;76.00;;;;;;5156896;27;20039;-75
2021/08/11 06:27:37;;;;;;;8.02;4.15;;;18.80;75.70;;;;;;5156976;27;20026;-76
2021/08/11 06:30:04;;;;;;;6.93;3.65;;;18.90;75.70;;;;;;5156765;27;20023;-75
2021/08/11 06:32:30;;;;;;;8.40;3.70;;;19.00;75.40;;;;;;5156718;27;20023;-74
2021/08/11 06:34:56;;;;;;;7.28;4.20;;;19.10;74.90;;;;;;5156728;27;20044;-75
2021/08/11 06:37:22;;;;;;;9.23;4.28;;;19.10;74.80;;;;;;5156309;27;20490;-75
2021/08/11 06:39:48;;;;;;;6.60;3.90;;;19.30;74.40;;;;;;5155989;27;20083;-77
2021/08/11 06:42:13;;;;;;;8.05;4.07;;;19.40;75.00;;;;;;5156649;27;20026;-76
2021/08/11 06:44:39;;;;;;;7.68;4.05;;;19.60;73.70;;;;;;5156411;27;20599;-76
2021/08/11 06:47:04;;;;;;;8.20;3.88;;;19.70;73.40;;;;;;5156721;27;20419;-74
2021/08/11 06:49:30;;;;;;;8.32;3.53;;;19.80;73.00;;;;;;5156391;27;20026;-74
2021/08/11 06:51:55;;;;;;;10.75;3.78;;;19.90;73.00;;;;;;5155962;27;20038;-74
2021/08/11 06:54:21;;;;;;;7.10;3.78;;;20.00;72.60;;;;;;5137621;27;20360;-74
2021/08/11 06:56:46;;;;;;;5.35;3.78;;;20.10;72.40;;;;;;5156260;27;20027;-74
2021/08/11 06:59:12;;;;;;;10.15;4.00;;;20.30;72.00;;;;;;5156065;27;20059;-74
2021/08/11 07:01:37;;;;;;;9.07;3.70;;;20.40;71.80;;;;;;5156099;27;20022;-73
2021/08/11 07:04:03;;;;;;;6.47;4.05;;;20.50;71.50;;;;;;5156029;27;20098;-74
2021/08/11 07:06:30;;;;;;;10.13;4.30;;;20.50;71.00;;;;;;5155704;27;20046;-74
2021/08/11 07:08:56;;;;;;;7.43;3.60;;;20.60;70.70;;;;;;5156014;27;20466;-74
2021/08/11 07:11:22;;;;;;;8.32;3.85;;;20.70;70.60;;;;;;5155836;27;20034;-75
2021/08/11 07:13:48;;;;;;;7.22;3.60;;;20.80;70.70;;;;;;5155844;27;20026;-75
2021/08/11 07:16:13;;;;;;;6.03;3.97;;;20.90;70.30;;;;;;5155673;27;20038;-76
2021/08/11 07:18:39;;;;;;;8.82;3.95;;;21.00;69.80;;;;;;5155871;27;20038;-75
2021/08/11 07:21:05;;;;;;;9.35;4.20;;;21.20;69.70;;;;;;5155824;27;20030;-74
2021/08/11 07:23:30;;;;;;;7.18;3.78;;;21.30;69.00;;;;;;5155670;27;20026;-75
2021/08/11 07:25:56;;;;;;;8.48;3.55;;;21.30;68.30;;;;;;5155721;27;20027;-75
2021/08/11 07:28:21;;;;;;;7.40;4.28;;;21.40;67.50;;;;;;5136896;27;20030;-75
2021/08/11 07:30:47;;;;;;;5.63;3.55;;;21.50;67.50;;;;;;5155322;27;20022;-75
2021/08/11 07:33:13;;;;;;;5.55;3.58;;;21.60;67.50;;;;;;5155380;27;20463;-75
2021/08/11 07:35:39;;;;;;;8.65;3.75;;;21.60;67.20;;;;;;5155322;27;20069;-76
2021/08/11 07:38:06;;;;;;;7.10;3.85;;;21.80;67.10;;;;;;5155301;27;20102;-76
2021/08/11 07:40:32;;;;;;;7.60;3.67;;;21.90;67.10;;;;;;5136838;27;20031;-75
2021/08/11 07:42:59;;;;;;;7.85;3.50;;;22.00;65.60;;;;;;5155240;27;20023;-76
2021/08/11 07:45:26;;;;;;;5.70;3.95;;;22.10;65.20;;;;;;5155156;27;20025;-75
2021/08/11 07:47:54;;;;;;;5.97;3.53;;;22.20;65.20;;;;;;5155199;27;20040;-75
2021/08/11 07:50:21;;;;;;;7.97;3.60;;;22.30;65.20;;;;;;5154925;27;20015;-75
2021/08/11 07:52:47;;;;;;;7.95;3.80;;;22.40;64.60;;;;;;5155027;27;20544;-75
2021/08/11 07:55:14;;;;;;;9.32;3.97;;;22.50;64.70;;;;;;5160410;27;20027;-79
2021/08/11 07:57:39;;;;;;;8.63;3.70;;;22.60;63.80;;;;;;5155556;27;20023;-75
2021/08/11 08:00:07;;;;;;;4.78;3.38;;;22.60;63.40;;;;;;5154835;27;20360;-76
2021/08/11 08:02:33;;;;;;;4.22;3.15;;;22.60;62.90;;;;;;5154934;27;20041;-76
2021/08/11 08:04:58;;;;;;;5.68;3.17;;;22.70;62.40;;;;;;5155012;27;20023;-76
2021/08/11 08:07:24;;;;;;;4.50;3.58;;;22.80;62.00;;;;;;5154886;27;20101;-75
2021/08/11 08:09:49;;;;;;;9.18;3.65;;;22.80;62.20;;;;;;5154799;27;20030;-75
2021/08/11 08:12:15;;;;;;;4.65;2.88;;;23.00;62.50;;;;;;5137624;27;20098;-76
2021/08/11 08:14:40;;;;;;;5.47;3.10;;;23.10;61.50;;;;;;5166753;27;20071;-75
2021/08/11 08:17:06;;;;;;;4.82;2.83;;;23.20;60.20;;;;;;5167153;27;20023;-75
2021/08/11 08:19:32;;;;;;;4.63;3.25;;;23.30;59.30;;;;;;5166572;27;20035;-76
2021/08/11 08:21:57;;;;;;;6.63;3.30;;;23.40;58.70;;;;;;5165279;27;20097;-75
2021/08/11 08:24:23;;;;;;;4.85;2.90;;;23.40;59.80;;;;;;5165593;27;20023;-74
2021/08/11 08:26:49;;;;;;;4.78;3.03;;;23.50;58.20;;;;;;5158610;27;20022;-79
2021/08/11 08:29:14;;;;;;;4.05;2.92;;;23.70;58.30;;;;;;5154956;27;20039;-75
2021/08/11 08:31:40;;;;;;;4.22;3.17;;;23.80;58.20;;;;;;5155576;27;20347;-75
2021/08/11 08:34:06;;;;;;;5.43;3.25;;;23.90;58.10;;;;;;5154364;27;20045;-79
2021/08/11 08:36:32;;;;;;;3.42;2.65;;;23.90;56.50;;;;;;5154176;27;20022;-75
2021/08/11 08:38:58;;;;;;;6.30;3.08;;;23.90;57.70;;;;;;5154174;27;20026;-75
2021/08/11 08:41:24;;;;;;;3.63;2.97;;;23.90;58.70;;;;;;5154063;27;20022;-76
2021/08/11 08:43:49;;;;;;;5.50;3.55;;;23.90;57.30;;;;;;5154317;27;20031;-77
2021/08/11 08:46:16;;;;;;;4.93;3.28;;;24.10;56.90;;;;;;5154262;27;20080;-76
2021/08/11 08:48:42;;;;;;;5.30;3.58;;;24.20;56.90;;;;;;5154298;27;20029;-83
2021/08/11 08:51:13;;;;;;;4.90;3.17;;;24.30;58.40;;;;;;5135611;27;20043;-85
2021/08/11 08:53:44;;;;;;;4.35;2.95;;;24.30;56.90;;;;;;5154471;27;20019;-73
2021/08/11 08:56:10;;;;;;;5.72;3.25;;;24.40;55.30;;;;;;5154419;27;20411;-74
2021/08/11 08:58:38;;;;;;;5.65;3.13;;;24.50;54.50;;;;;;5155417;27;20019;-76
2021/08/11 09:01:04;;;;;;;5.35;3.20;;;24.50;54.70;;;;;;5136220;27;20038;-78
2021/08/11 09:03:30;;;;;;;5.75;3.10;;;24.60;53.80;;;;;;5159186;27;20023;-84
2021/08/11 09:05:55;;;;;;;5.40;3.25;;;24.60;53.90;;;;;;5158863;27;20026;-86
2021/08/11 09:08:21;;;;;;;5.90;3.42;;;24.60;55.10;;;;;;5158577;27;20019;-76
2021/08/11 09:10:47;;;;;;;7.00;3.50;;;24.70;55.60;;;;;;5158177;27;20126;-76
2021/08/11 09:13:23;;;;;;;5.53;3.58;;;24.60;55.40;;;;;;5158039;27;20027;-76
2021/08/11 09:16:04;;;;;;;5.45;3.25;;;24.80;56.70;;;;;;5139520;27;20090;-75
2021/08/11 09:18:30;;;;;;;5.38;3.33;;;24.90;55.00;;;;;;5158042;27;20019;-79
2021/08/11 09:20:58;;;;;;;3.47;3.10;;;25.00;55.40;;;;;;5139488;27;20042;-76
2021/08/11 09:23:37;;;;;;;3.95;2.92;;;25.00;53.60;;;;;;5158097;27;20050;-76
2021/08/11 09:26:05;;;;;;;3.88;3.35;;;25.10;54.90;;;;;;5157873;27;20117;-76
2021/08/11 09:28:33;;;;;;;6.07;3.22;;;25.00;49.90;;;;;;5157820;27;20023;-79
2021/08/11 09:30:59;;;;;;;7.22;3.80;;;24.90;49.50;;;;;;5157778;27;20077;-75
2021/08/11 09:33:26;;;;;;;5.35;3.40;;;25.00;48.70;;;;;;5157673;27;20475;-76
2021/08/11 09:35:53;;;;;;;5.30;4.30;;;25.10;48.90;;;;;;5157336;27;20424;-76
2021/08/11 09:38:19;;;;;;;5.00;4.05;;;25.10;44.90;;;;;;5157637;27;20045;-75
2021/08/11 09:40:45;;;;;;;4.10;3.70;;;25.20;45.50;;;;;;5157446;27;20034;-75
2021/08/11 09:43:16;;;;;;;5.60;3.95;;;25.20;46.00;;;;;;5157780;27;20107;-74
2021/08/11 09:45:54;;;;;;;4.95;3.50;;;25.20;47.20;;;;;;5157290;27;20075;-75
2021/08/11 09:48:22;;;;;;;4.25;3.47;;;25.30;47.70;;;;;;5157497;27;20026;-74
2021/08/11 09:51:00;;;;;;;4.72;3.20;;;25.50;48.40;;;;;;5157260;27;20085;-75
2021/08/11 09:53:28;;;;;;;4.72;3.67;;;25.50;47.10;;;;;;5157404;27;20033;-75
2021/08/11 09:56:05;;;;;;;6.78;4.13;;;25.40;46.50;;;;;;5157429;27;20019;-75
2021/08/11 09:58:44;;;;;;;5.30;4.40;;;25.60;45.00;;;;;;5138697;27;20029;-73
2021/08/11 10:01:13;;;;;;;8.43;5.22;;;25.80;44.50;;;;;;5157775;27;20419;-75
2021/08/11 10:04:03;;;;;;;6.25;4.72;;;25.50;44.10;;;;;;5158029;27;20021;-76
2021/08/11 10:06:34;;;;;;;5.20;4.45;;;25.60;44.30;;;;;;5145411;27;20038;-76
2021/08/11 10:09:25;;;;;;;5.80;4.82;;;25.60;45.30;;;;;;5157309;27;20030;-75
2021/08/11 10:11:59;;;;;;;6.75;4.30;;;25.60;45.60;;;;;;5157070;27;20054;-75
2021/08/11 10:14:28;;;;;;;7.55;4.32;;;25.80;44.90;;;;;;5156998;27;20017;-74
2021/08/11 10:16:57;;;;;;;7.20;4.20;;;26.10;45.30;;;;;;5157025;27;20025;-75
2021/08/11 10:19:25;;;;;;;6.13;4.38;;;26.20;45.00;;;;;;5156618;27;20026;-74
2021/08/11 10:21:59;;;;;;;8.80;4.20;;;26.40;44.60;;;;;;5156577;27;20090;-74
2021/08/11 10:24:26;;;;;;;6.13;4.65;;;26.50;44.10;;;;;;5156403;27;20030;-75
2021/08/11 10:26:52;;;;;;;7.25;4.43;;;26.60;43.70;;;;;;5156698;27;20039;-74
2021/08/11 10:29:24;;;;;;;6.22;4.65;;;26.80;43.10;;;;;;5156318;27;20033;-74
2021/08/11 10:31:49;;;;;;;4.88;4.15;;;26.80;43.40;;;;;;5156302;27;20011;-74
2021/08/11 10:34:18;;;;;;;5.90;4.00;;;26.70;43.80;;;;;;5156042;27;20034;-75
2021/08/11 10:36:45;;;;;;;7.28;4.22;;;26.90;43.20;;;;;;5156178;27;20049;-74
2021/08/11 10:39:11;;;;;;;8.68;4.25;;;27.30;43.20;;;;;;5137580;27;20114;-73
2021/08/11 10:41:38;;;;;;;6.35;4.35;;;27.20;42.90;;;;;;5156600;27;20062;-72
2021/08/11 10:44:05;;;;;;;6.47;4.30;;;27.30;41.70;;;;;;5156220;27;20018;-72
2021/08/11 10:46:35;;;;;;;6.68;4.50;;;27.10;41.30;;;;;;5156285;27;20025;-73
2021/08/11 10:49:06;;;;;;;7.28;4.78;;;27.00;41.60;;;;;;5137607;27;20305;-73
2021/08/11 10:51:39;;;;;;;7.13;4.90;;;27.00;42.00;;;;;;5155959;27;20078;-73
2021/08/11 10:54:07;;;;;;;5.20;4.20;;;27.20;41.30;;;;;;5156047;27;20019;-73
2021/08/11 10:56:50;;;;;;;7.90;4.20;;;27.40;41.30;;;;;;5156118;27;20023;-73
2021/08/11 10:59:22;;;;;;;4.47;3.88;;;27.80;40.30;;;;;;5155865;27;20041;-74
2021/08/11 11:01:49;;;;;;;6.57;4.82;;;28.00;39.70;;;;;;5155850;27;20102;-74
2021/08/11 11:04:46;;;;;;;5.35;4.20;;;28.20;40.00;;;;;;5137419;27;20095;-74
2021/08/11 11:07:20;;;;;;;6.57;4.15;;;28.10;38.40;;;;;;5156033;27;20034;-74
2021/08/11 11:09:48;;;;;;;4.80;4.35;;;27.80;38.60;;;;;;5137294;27;20109;-74
2021/08/11 11:12:16;;;;;;;6.63;4.80;;;27.70;40.80;;;;;;5156043;27;20025;-74
2021/08/11 11:14:45;;;;;;;7.15;4.45;;;27.60;39.90;;;;;;5155727;27;20045;-73
2021/08/11 11:17:12;;;;;;;6.82;4.75;;;27.70;40.30;;;;;;5157364;27;20082;-75
2021/08/11 11:20:03;;;;;;;4.45;4.05;;;27.80;39.70;;;;;;5157430;27;20027;-73
2021/08/11 11:22:40;;;;;;;9.18;4.47;;;27.90;39.50;;;;;;5139237;27;20021;-73
2021/08/11 11:25:07;;;;;;;8.90;4.82;;;28.40;39.00;;;;;;5155229;27;20054;-73
2021/08/11 11:27:39;;;;;;;5.80;3.97;;;28.70;38.00;;;;;;5155761;27;20053;-73
2021/08/11 11:30:13;;;;;;;6.72;4.28;;;28.90;37.90;;;;;;5155427;27;20051;-73
2021/08/11 11:32:39;;;;;;;5.78;4.25;;;28.70;39.50;;;;;;5155598;27;20538;-74
2021/08/11 11:35:15;;;;;;;5.63;3.70;;;29.00;39.70;;;;;;5155408;27;20042;-74
2021/08/11 11:37:41;;;;;;;9.13;4.35;;;28.70;39.70;;;;;;5155556;27;20148;-75
2021/08/11 11:40:08;;;;;;;5.45;4.53;;;28.50;40.00;;;;;;5157074;27;20054;-74
2021/08/11 11:42:34;;;;;;;4.78;4.30;;;28.50;40.80;;;;;;5157334;27;20356;-74
2021/08/11 11:45:01;;;;;;;5.45;4.25;;;28.90;39.90;;;;;;5155324;27;20029;-74
2021/08/11 11:50:20;;;;;;;5.35;4.25;;;28.70;39.50;;;;;;5155146;27;20114;-73
2021/08/11 11:52:57;;;;;;;6.38;4.30;;;28.70;39.80;;;;;;5154930;27;20499;-74
2021/08/11 11:55:42;;;;;;;5.43;4.13;;;28.80;39.30;;;;;;5154993;27;20035;-73
2021/08/11 11:58:13;;;;;;;;;;;29.10;39.20;;;;;;5136963;27;20398;-74
2021/08/11 12:00:39;;;;;;;11.90;4.60;;;29.40;38.50;;;;;;5155175;27;20385;-74
2021/08/11 12:03:05;;;;;;;6.05;4.45;;;29.30;37.80;;;;;;5154800;27;20115;-74
2021/08/11 12:05:47;;;;;;;9.10;4.70;;;29.40;38.20;;;;;;5154855;27;20029;-73
2021/08/11 12:08:16;;;;;;;6.95;4.38;;;29.10;37.30;;;;;;5154478;27;20018;-74
2021/08/11 12:10:43;;;;;;;5.78;4.90;;;29.30;37.60;;;;;;5154897;27;20022;-73
2021/08/11 12:13:09;;;;;;;6.35;4.53;;;29.30;38.40;;;;;;5155094;27;20019;-74
2021/08/11 12:15:36;;;;;;;7.22;4.88;;;29.60;37.70;;;;;;5154884;27;20049;-73
2021/08/11 12:18:17;;;;;;;6.28;4.40;;;29.30;37.80;;;;;;5154612;27;20019;-73
2021/08/11 12:20:44;;;;;;;6.28;5.00;;;29.20;38.90;;;;;;5154285;27;20038;-74
2021/08/11 12:23:20;;;;;;;7.95;4.65;;;28.70;39.00;;;;;;5154365;27;20547;-74
2021/08/11 12:25:53;;;;;;;5.45;4.78;;;28.20;40.20;;;;;;5154670;27;20046;-73
2021/08/11 12:28:23;;;;;;;8.73;5.10;;;28.00;41.30;;;;;;5154448;27;20017;-74
2021/08/11 12:30:58;;;;;;;5.60;4.57;;;27.80;41.40;;;;;;5135648;27;20026;-74
2021/08/11 12:33:28;;;;;;;6.50;4.77;;;27.60;41.40;;;;;;5154196;27;20102;-74
2021/08/11 12:35:54;;;;;;;5.97;4.45;;;27.60;41.60;;;;;;5153396;27;20268;-73
2021/08/11 12:38:33;;;;;;;6.10;4.60;;;28.00;42.60;;;;;;5154499;27;20019;-73
2021/08/11 12:41:24;;;;;;;8.65;5.05;;;28.30;39.80;;;;;;5154294;27;20483;-74
2021/08/11 12:43:56;;;;;;;6.95;5.75;;;28.90;39.20;;;;;;5154273;27;20101;-73
2021/08/11 12:46:43;;;;;;;8.45;5.78;;;29.40;39.60;;;;;;5154358;27;20023;-74
2021/08/11 12:49:20;;;;;;;9.55;5.80;;;29.50;37.80;;;;;;5154397;27;20030;-74
2021/08/11 12:52:10;;;;;;;7.28;5.35;;;29.50;37.70;;;;;;5154320;27;20099;-74
2021/08/11 12:55:04;;;;;;;6.90;5.60;;;29.40;37.60;;;;;;5120711;27;20110;-74